Terminal Aerodrome Forecast
Issued by NWS

Home | Current Version | Previous Version | Graphics & Text | Print | Product List | Glossary On
Versions: 1 2 3 4 5 6 7 8 9 10 11 12 13 14 15 16 17 18 19 20 21 22 23 24 25 26 27 28 29 30 31 32
000
FTUS43 KLOT 211400 AAA
TAFORD
TAF AMD
KORD 211403Z 2114/2218 24004KT P6SM FEW250
     FM211600 18009KT P6SM SCT150 SCT250
     FM220600 19012KT P6SM BKN035
     FM220800 20010KT P6SM -FZDZ OVC015 WS020/22040KT PROB30
      2209/2212 -FZRA
     FM221400 21011KT P6SM OVC015=

USA.gov is the U.S. government's official web portal to all federal, state and local government web resources and services.